createdAt,value
2023-01-29T00:01:51.926Z,11.93
2023-01-29T00:04:18.955Z,11.63
2023-01-29T00:06:45.308Z,11.60
2023-01-29T00:09:12.986Z,11.57
2023-01-29T00:11:39.720Z,12.00
2023-01-29T00:14:06.863Z,11.50
2023-01-29T00:16:33.367Z,12.70
2023-01-29T00:19:02.074Z,11.37
2023-01-29T00:21:30.986Z,12.10
2023-01-29T00:23:58.565Z,11.23
2023-01-29T00:26:25.609Z,11.47
2023-01-29T00:28:52.149Z,12.10
2023-01-29T00:31:24.336Z,11.37
2023-01-29T00:33:51.257Z,11.20
2023-01-29T00:36:19.473Z,11.43
2023-01-29T00:38:54.732Z,13.00
2023-01-29T00:41:40.245Z,12.60
2023-01-29T00:44:25.972Z,11.00
2023-01-29T00:46:52.454Z,12.47
2023-01-29T00:49:18.832Z,12.90
2023-01-29T00:52:05.132Z,12.13
2023-01-29T00:54:33.140Z,13.40
2023-01-29T00:56:59.680Z,12.03
2023-01-29T00:59:26.171Z,12.33
2023-01-29T01:02:10.921Z,12.73
2023-01-29T01:04:37.451Z,10.30
2023-01-29T01:07:03.862Z,11.33
2023-01-29T01:09:48.773Z,11.53
2023-01-29T01:12:15.125Z,10.43
2023-01-29T01:14:43.325Z,12.03
2023-01-29T01:17:09.800Z,11.53
2023-01-29T01:19:36.181Z,10.97
2023-01-29T01:22:04.906Z,10.67
2023-01-29T01:24:32.211Z,12.10
2023-01-29T01:26:58.733Z,10.23
2023-01-29T01:29:25.123Z,11.63
2023-01-29T01:31:53.453Z,10.47
2023-01-29T01:34:20.573Z,10.20
2023-01-29T01:36:46.922Z,11.50
2023-01-29T01:39:13.746Z,10.00
2023-01-29T01:41:40.078Z,11.67
2023-01-29T01:44:06.580Z,10.07
2023-01-29T01:46:37.694Z,10.97
2023-01-29T01:49:15.819Z,11.23
2023-01-29T01:51:48.427Z,10.47
2023-01-29T01:54:25.002Z,11.67
2023-01-29T01:57:09.128Z,11.40
2023-01-29T01:59:40.969Z,10.50
2023-01-29T02:02:26.326Z,10.03
2023-01-29T02:05:11.864Z,10.70
2023-01-29T02:08:02.590Z,10.63
2023-01-29T02:10:32.605Z,12.73
2023-01-29T02:12:58.933Z,10.60
2023-01-29T02:15:25.296Z,11.40
2023-01-29T02:17:52.756Z,10.50
2023-01-29T02:20:26.146Z,10.87
2023-01-29T02:23:03.746Z,11.40
2023-01-29T02:26:15.620Z,9.90
2023-01-29T02:28:53.617Z,11.00
2023-01-29T02:31:33.605Z,10.77
2023-01-29T02:34:22.292Z,11.57
2023-01-29T02:37:02.937Z,10.43
2023-01-29T02:39:36.399Z,11.20
2023-01-29T02:42:06.055Z,10.10
2023-01-29T02:44:47.633Z,10.87
2023-01-29T02:47:22.316Z,10.03
2023-01-29T02:50:00.812Z,11.03
2023-01-29T02:52:35.605Z,10.70
2023-01-29T02:55:11.216Z,10.73
2023-01-29T02:57:41.900Z,10.40
2023-01-29T03:00:17.040Z,10.80
2023-01-29T03:02:53.440Z,10.93
2023-01-29T03:05:28.868Z,11.07
2023-01-29T03:08:02.063Z,11.83
2023-01-29T03:10:47.331Z,10.07
2023-01-29T03:13:39.425Z,10.30
2023-01-29T03:16:24.334Z,10.10
2023-01-29T03:19:00.260Z,10.70
2023-01-29T03:21:55.081Z,10.40
2023-01-29T03:24:45.056Z,12.40
2023-01-29T03:27:33.985Z,10.97
2023-01-29T03:30:20.360Z,11.40
2023-01-29T03:32:51.904Z,11.67
2023-01-29T03:35:33.532Z,12.60
2023-01-29T03:38:00.864Z,12.47
2023-01-29T03:40:33.581Z,12.70
2023-01-29T03:43:11.344Z,11.37
2023-01-29T03:45:45.963Z,11.20
2023-01-29T03:48:33.835Z,12.50
2023-01-29T03:51:15.592Z,11.93
2023-01-29T03:54:04.174Z,12.30
2023-01-29T03:57:31.248Z,12.43
2023-01-29T04:00:08.158Z,11.80
2023-01-29T04:02:55.433Z,13.17
2023-01-29T04:05:27.420Z,12.23
2023-01-29T04:08:02.469Z,12.27
2023-01-29T04:10:29.821Z,11.50
2023-01-29T04:13:04.273Z,11.70
2023-01-29T04:15:36.633Z,13.03
2023-01-29T04:18:03.143Z,11.63
2023-01-29T04:20:29.958Z,11.80
2023-01-29T04:22:56.370Z,13.23
2023-01-29T04:25:29.010Z,13.13
2023-01-29T04:28:12.400Z,12.57
2023-01-29T04:30:59.923Z,12.33
2023-01-29T04:33:40.347Z,12.80
2023-01-29T04:36:28.423Z,11.50
2023-01-29T04:39:17.971Z,11.90
2023-01-29T04:42:05.508Z,12.70
2023-01-29T04:44:57.207Z,11.33
2023-01-29T04:48:17.773Z,12.17
2023-01-29T04:50:54.157Z,12.00
2023-01-29T04:53:41.125Z,10.23
2023-01-29T04:56:33.192Z,11.80
2023-01-29T04:59:05.994Z,11.77
2023-01-29T05:01:34.237Z,11.13
2023-01-29T05:04:04.532Z,11.40
2023-01-29T05:06:32.447Z,11.40
2023-01-29T05:09:00.745Z,11.00
2023-01-29T05:11:27.249Z,12.37
2023-01-29T05:13:54.491Z,10.17
2023-01-29T05:16:26.558Z,10.73
2023-01-29T05:18:53.684Z,11.40
2023-01-29T05:21:23.037Z,11.23
2023-01-29T05:24:11.402Z,12.10
2023-01-29T05:26:56.476Z,12.23
2023-01-29T05:29:22.960Z,11.23
2023-01-29T05:31:49.363Z,12.63
2023-01-29T05:34:15.797Z,11.87
2023-01-29T05:36:42.285Z,12.47
2023-01-29T05:39:08.608Z,12.80
2023-01-29T05:41:35.117Z,11.87
2023-01-29T05:44:01.499Z,13.27
2023-01-29T05:46:27.978Z,12.93
2023-01-29T05:48:54.544Z,12.77
2023-01-29T05:51:21.116Z,12.30
2023-01-29T05:53:47.455Z,13.10
2023-01-29T05:56:13.927Z,12.50
2023-01-29T05:58:40.409Z,12.37
2023-01-29T06:01:14.825Z,12.33
2023-01-29T06:03:41.650Z,11.67
2023-01-29T06:06:08.403Z,12.23
2023-01-29T06:08:34.823Z,11.50
2023-01-29T06:11:01.216Z,11.37
2023-01-29T06:13:27.571Z,11.57
2023-01-29T06:15:54.109Z,12.10
2023-01-29T06:18:20.487Z,11.23
2023-01-29T06:20:46.989Z,12.73
2023-01-29T06:23:13.374Z,12.43
2023-01-29T06:25:39.849Z,13.43
2023-01-29T06:28:06.177Z,11.73
2023-01-29T06:30:32.597Z,12.30
2023-01-29T06:33:01.554Z,11.17
2023-01-29T06:35:28.474Z,11.63
2023-01-29T06:37:56.164Z,12.10
2023-01-29T06:40:22.539Z,12.30
2023-01-29T06:42:48.862Z,12.07
2023-01-29T06:45:15.428Z,12.27
2023-01-29T06:47:41.765Z,11.37
2023-01-29T06:50:08.695Z,12.20
2023-01-29T06:52:35.020Z,11.27
2023-01-29T06:55:01.583Z,12.80
2023-01-29T06:57:29.130Z,12.97
2023-01-29T06:59:55.512Z,12.17
2023-01-29T07:02:21.907Z,13.70
2023-01-29T07:04:48.400Z,11.77
2023-01-29T07:07:14.731Z,12.57
2023-01-29T07:09:42.097Z,13.33
2023-01-29T07:12:09.974Z,12.77
2023-01-29T07:14:36.680Z,12.50
2023-01-29T07:17:03.173Z,12.37
2023-01-29T07:19:29.590Z,12.33
2023-01-29T07:21:55.965Z,13.33
2023-01-29T07:24:22.486Z,12.00
2023-01-29T07:26:48.954Z,12.83
2023-01-29T07:29:15.441Z,12.73
2023-01-29T07:31:41.840Z,12.80
2023-01-29T07:34:08.458Z,13.63
2023-01-29T07:36:34.822Z,13.97
2023-01-29T07:39:01.213Z,13.70
2023-01-29T07:41:27.529Z,14.50
2023-01-29T07:43:54.012Z,13.57
2023-01-29T07:46:20.333Z,13.93
2023-01-29T07:48:46.701Z,13.17
2023-01-29T07:51:13.098Z,13.90
2023-01-29T07:53:39.618Z,14.00
2023-01-29T07:56:06.058Z,14.47
2023-01-29T07:58:33.891Z,15.27
2023-01-29T08:01:05.450Z,15.43
2023-01-29T08:03:32.051Z,13.67
2023-01-29T08:05:58.390Z,14.67
2023-01-29T08:08:25.765Z,14.20
2023-01-29T08:10:52.091Z,16.27
2023-01-29T08:13:18.460Z,15.37
2023-01-29T08:15:45.715Z,16.33
2023-01-29T08:18:13.430Z,17.53
2023-01-29T08:20:40.062Z,18.00
2023-01-29T08:23:13.127Z,15.10
2023-01-29T08:25:39.583Z,19.80
2023-01-29T08:28:06.107Z,19.30
2023-01-29T08:30:34.306Z,20.13
2023-01-29T08:33:01.332Z,18.30
2023-01-29T08:35:27.671Z,21.63
2023-01-29T08:37:59.731Z,28.03
2023-01-29T08:40:27.320Z,28.17
2023-01-29T08:43:01.976Z,22.87
2023-01-29T08:45:30.041Z,19.57
2023-01-29T08:47:56.462Z,20.63
2023-01-29T08:50:22.784Z,21.23
2023-01-29T08:52:49.155Z,21.67
2023-01-29T08:55:15.743Z,24.07
2023-01-29T08:57:42.320Z,22.47
2023-01-29T09:00:10.613Z,23.43
2023-01-29T09:02:38.014Z,21.77
2023-01-29T09:05:05.545Z,23.20
2023-01-29T09:07:32.497Z,23.30
2023-01-29T09:09:58.929Z,22.80
2023-01-29T09:12:25.745Z,22.70
2023-01-29T09:14:52.117Z,22.43
2023-01-29T09:17:18.621Z,22.23
2023-01-29T09:19:45.022Z,24.03
2023-01-29T09:22:11.990Z,23.70
2023-01-29T09:24:38.579Z,23.63
2023-01-29T09:27:06.047Z,23.93
2023-01-29T09:29:35.435Z,24.80
2023-01-29T09:32:03.313Z,23.37
2023-01-29T09:34:29.699Z,22.30
2023-01-29T09:36:56.040Z,25.00
2023-01-29T09:39:22.400Z,25.70
2023-01-29T09:42:27.393Z,24.63
2023-01-29T09:45:13.115Z,23.97
2023-01-29T09:47:39.768Z,25.90
2023-01-29T09:50:19.999Z,24.50
2023-01-29T09:52:53.128Z,24.30
2023-01-29T09:55:27.284Z,24.93
2023-01-29T09:57:57.424Z,24.83
2023-01-29T10:00:35.273Z,23.60
2023-01-29T10:03:09.596Z,25.10
2023-01-29T10:05:57.583Z,25.47
2023-01-29T10:08:48.783Z,25.40
2023-01-29T10:11:27.319Z,25.97
2023-01-29T10:14:13.581Z,24.87
2023-01-29T10:16:59.123Z,25.67
2023-01-29T10:19:42.821Z,25.73
2023-01-29T10:22:35.917Z,25.43
2023-01-29T10:25:22.855Z,27.30
2023-01-29T10:27:53.509Z,25.80
2023-01-29T10:30:25.747Z,27.27
2023-01-29T10:32:53.360Z,27.20
2023-01-29T10:35:32.197Z,25.40
2023-01-29T10:38:12.301Z,24.13
2023-01-29T10:40:46.857Z,25.20
2023-01-29T10:43:23.589Z,28.17
2023-01-29T10:46:08.332Z,29.57
2023-01-29T10:48:46.916Z,29.13
2023-01-29T10:51:42.004Z,27.53
2023-01-29T10:54:20.426Z,27.23
2023-01-29T10:57:16.058Z,27.33
2023-01-29T11:00:19.231Z,24.00
2023-01-29T11:02:48.516Z,29.17
2023-01-29T11:05:38.612Z,28.43
2023-01-29T11:08:19.674Z,28.83
2023-01-29T11:11:01.922Z,27.83
2023-01-29T11:13:34.728Z,27.77
2023-01-29T11:16:01.055Z,26.30
2023-01-29T11:18:47.533Z,26.77
2023-01-29T11:21:14.606Z,26.43
2023-01-29T11:23:41.021Z,26.90
2023-01-29T11:26:11.287Z,26.90
2023-01-29T11:28:46.004Z,26.37
2023-01-29T11:31:26.013Z,26.47
2023-01-29T11:34:02.183Z,25.03
2023-01-29T11:36:37.169Z,26.40
2023-01-29T11:39:18.435Z,25.47
2023-01-29T11:41:47.116Z,24.10
2023-01-29T11:44:27.870Z,24.80
2023-01-29T11:46:55.023Z,24.07
2023-01-29T11:49:52.453Z,25.70
2023-01-29T11:52:22.371Z,23.13
2023-01-29T11:55:02.216Z,22.07
2023-01-29T11:57:30.955Z,24.23
2023-01-29T12:00:29.818Z,23.67
2023-01-29T12:03:02.064Z,22.60
2023-01-29T12:05:28.715Z,21.93
2023-01-29T12:07:59.822Z,22.77
2023-01-29T12:10:41.406Z,20.33
2023-01-29T12:13:10.790Z,21.53
2023-01-29T12:15:38.811Z,21.73
2023-01-29T12:18:17.488Z,23.80
2023-01-29T12:20:55.094Z,20.60
2023-01-29T12:23:36.837Z,23.73
2023-01-29T12:26:15.749Z,21.57
2023-01-29T12:28:52.064Z,19.90
2023-01-29T12:31:36.751Z,22.67
2023-01-29T12:34:21.977Z,22.47
2023-01-29T12:36:53.593Z,20.13
2023-01-29T12:39:20.783Z,21.30
2023-01-29T12:41:54.635Z,21.03
2023-01-29T12:44:30.238Z,21.27
2023-01-29T12:47:00.837Z,21.90
2023-01-29T12:49:34.504Z,22.30
2023-01-29T12:52:09.443Z,21.63
2023-01-29T12:54:43.572Z,22.40
2023-01-29T12:57:25.981Z,21.00
2023-01-29T13:00:02.572Z,21.80
2023-01-29T13:02:37.768Z,21.60
2023-01-29T13:05:48.739Z,20.33
2023-01-29T13:08:30.533Z,21.17
2023-01-29T13:11:01.510Z,21.70
2023-01-29T13:13:44.453Z,21.60
2023-01-29T13:16:13.723Z,19.47
2023-01-29T13:18:45.134Z,20.90
2023-01-29T13:21:25.299Z,21.97
2023-01-29T13:23:55.577Z,20.10
2023-01-29T13:26:23.187Z,22.60
2023-01-29T13:28:51.130Z,20.93
2023-01-29T13:31:37.670Z,21.90
2023-01-29T13:34:03.984Z,21.27
2023-01-29T13:36:31.757Z,20.83
2023-01-29T13:39:05.216Z,20.90
2023-01-29T13:41:34.456Z,21.10
2023-01-29T13:44:01.073Z,21.17
2023-01-29T13:46:28.383Z,21.53
2023-01-29T13:48:58.107Z,21.23
2023-01-29T13:51:32.091Z,20.90
2023-01-29T13:54:07.516Z,23.33
2023-01-29T13:56:33.840Z,22.97
2023-01-29T13:59:01.139Z,23.87
2023-01-29T14:01:49.406Z,22.50
2023-01-29T14:04:18.740Z,23.30
2023-01-29T14:06:48.740Z,23.97
2023-01-29T14:09:53.881Z,22.13
2023-01-29T14:12:22.945Z,18.70
2023-01-29T14:14:49.298Z,21.93
2023-01-29T14:17:17.446Z,23.60
2023-01-29T14:19:49.734Z,21.40
2023-01-29T14:22:22.851Z,22.30
2023-01-29T14:24:55.532Z,22.57
2023-01-29T14:27:25.547Z,22.23
2023-01-29T14:29:59.141Z,21.63
2023-01-29T14:32:26.152Z,22.70
2023-01-29T14:35:03.768Z,22.20
2023-01-29T14:37:36.445Z,21.33
2023-01-29T14:40:12.084Z,22.27
2023-01-29T14:43:04.581Z,23.20
2023-01-29T14:45:33.056Z,21.67
2023-01-29T14:48:37.555Z,22.10
2023-01-29T14:51:20.325Z,21.60
2023-01-29T14:54:04.639Z,24.57
2023-01-29T14:56:35.368Z,23.87
2023-01-29T14:59:16.584Z,23.07
2023-01-29T15:01:54.930Z,22.20
2023-01-29T15:04:33.473Z,25.27
2023-01-29T15:07:05.768Z,23.83
2023-01-29T15:09:42.480Z,24.10
2023-01-29T15:12:20.915Z,21.87
2023-01-29T15:15:01.876Z,23.77
2023-01-29T15:17:33.023Z,25.20
2023-01-29T15:19:59.486Z,23.03
2023-01-29T15:22:26.181Z,24.93
2023-01-29T15:25:07.842Z,24.83
2023-01-29T15:27:34.630Z,24.03
2023-01-29T15:30:04.505Z,26.10
2023-01-29T15:32:39.627Z,26.50
2023-01-29T15:35:18.048Z,23.67
2023-01-29T15:38:05.652Z,24.30
2023-01-29T15:40:32.622Z,22.97
2023-01-29T15:42:59.116Z,24.17
2023-01-29T15:45:33.335Z,23.80
2023-01-29T15:48:13.668Z,20.83
2023-01-29T15:50:42.230Z,25.80
2023-01-29T15:53:17.238Z,25.40
2023-01-29T15:55:44.569Z,23.27
2023-01-29T15:58:24.109Z,24.17
2023-01-29T16:00:55.771Z,28.30
2023-01-29T16:03:24.686Z,24.90
2023-01-29T16:05:52.678Z,24.80
2023-01-29T16:08:21.931Z,26.63
2023-01-29T16:10:52.607Z,25.73
2023-01-29T16:13:23.431Z,22.40
2023-01-29T16:16:01.236Z,27.10
2023-01-29T16:18:37.446Z,25.90
2023-01-29T16:21:12.692Z,27.37
2023-01-29T16:23:45.754Z,28.80
2023-01-29T16:26:17.234Z,25.73
2023-01-29T16:28:45.268Z,24.57
2023-01-29T16:31:14.001Z,27.33
2023-01-29T16:33:43.334Z,26.27
2023-01-29T16:36:21.533Z,27.70
2023-01-29T16:38:55.336Z,23.33
2023-01-29T16:41:21.628Z,26.60
2023-01-29T16:43:51.465Z,23.97
2023-01-29T16:46:24.122Z,25.60
2023-01-29T16:48:50.944Z,25.17
2023-01-29T16:51:28.370Z,24.43
2023-01-29T16:54:00.080Z,26.77
2023-01-29T16:56:30.258Z,26.00
2023-01-29T16:58:57.338Z,25.10
2023-01-29T17:01:26.813Z,25.10
2023-01-29T17:04:21.064Z,25.37
2023-01-29T17:06:56.189Z,24.47
2023-01-29T17:09:35.093Z,24.10
2023-01-29T17:12:20.149Z,22.00
2023-01-29T17:14:55.656Z,23.03
2023-01-29T17:17:28.492Z,22.13
2023-01-29T17:19:54.831Z,22.53
2023-01-29T17:22:21.200Z,23.83
2023-01-29T17:24:51.305Z,22.97
2023-01-29T17:27:22.736Z,23.10
2023-01-29T17:29:49.316Z,24.63
2023-01-29T17:32:18.744Z,26.33
2023-01-29T17:34:46.701Z,25.67
2023-01-29T17:37:15.195Z,25.60
2023-01-29T17:39:43.082Z,24.73
2023-01-29T17:42:15.171Z,26.87
2023-01-29T17:44:42.856Z,25.23
2023-01-29T17:47:14.867Z,26.30
2023-01-29T17:49:41.946Z,24.00
2023-01-29T17:52:08.755Z,24.33
2023-01-29T17:54:35.145Z,27.63
2023-01-29T17:57:01.762Z,26.50
2023-01-29T17:59:31.287Z,25.43
2023-01-29T18:01:57.980Z,26.37
2023-01-29T18:04:24.429Z,25.93
2023-01-29T18:06:51.908Z,25.50
2023-01-29T18:09:21.706Z,21.57
2023-01-29T18:11:49.426Z,23.80
2023-01-29T18:14:16.423Z,23.77
2023-01-29T18:16:44.641Z,25.50
2023-01-29T18:19:22.065Z,23.27
2023-01-29T18:21:49.549Z,25.07
2023-01-29T18:24:16.483Z,23.50
2023-01-29T18:26:42.964Z,23.73
2023-01-29T18:29:09.521Z,24.47
2023-01-29T18:31:35.903Z,24.87
2023-01-29T18:34:02.390Z,23.10
2023-01-29T18:36:28.849Z,21.43
2023-01-29T18:38:56.790Z,25.80
2023-01-29T18:41:23.149Z,26.33
2023-01-29T18:43:51.690Z,23.37
2023-01-29T18:46:18.854Z,31.23
2023-01-29T18:48:45.449Z,28.40
2023-01-29T18:51:11.802Z,28.13
2023-01-29T18:53:38.195Z,28.63
2023-01-29T18:56:07.396Z,26.73
2023-01-29T18:58:38.390Z,27.40
2023-01-29T19:01:09.380Z,29.37
2023-01-29T19:03:36.584Z,29.00
2023-01-29T19:06:06.040Z,30.53
2023-01-29T19:08:32.632Z,29.47
2023-01-29T19:11:02.295Z,31.40
2023-01-29T19:13:32.864Z,32.17
2023-01-29T19:15:59.202Z,28.07
2023-01-29T19:18:26.659Z,31.23
2023-01-29T19:20:53.551Z,30.80
2023-01-29T19:23:21.203Z,31.50
2023-01-29T19:25:47.805Z,31.20
2023-01-29T19:28:14.578Z,32.43
2023-01-29T19:30:40.971Z,32.17
2023-01-29T19:33:07.363Z,31.23
2023-01-29T19:35:33.972Z,30.23
2023-01-29T19:38:01.020Z,31.33
2023-01-29T19:40:27.394Z,32.17
2023-01-29T19:42:55.697Z,32.07
2023-01-29T19:45:49.407Z,30.13
2023-01-29T19:48:14.406Z,32.67
2023-01-29T19:50:40.768Z,30.93
2023-01-29T19:53:07.137Z,32.70
2023-01-29T19:55:33.489Z,32.17
2023-01-29T19:57:59.895Z,34.00
2023-01-29T20:00:26.370Z,35.10
2023-01-29T20:02:52.809Z,32.47
2023-01-29T20:05:20.337Z,33.27
2023-01-29T20:07:46.909Z,31.60
2023-01-29T20:10:17.359Z,32.70
2023-01-29T20:12:44.965Z,31.30
2023-01-29T20:15:12.593Z,27.47
2023-01-29T20:17:39.244Z,33.53
2023-01-29T20:20:06.717Z,32.93
2023-01-29T20:22:33.105Z,33.57
2023-01-29T20:24:59.456Z,32.57
2023-01-29T20:27:26.041Z,34.87
2023-01-29T20:29:52.630Z,33.23
2023-01-29T20:32:19.131Z,32.00
2023-01-29T20:34:49.480Z,34.57
2023-01-29T20:37:15.889Z,35.67
2023-01-29T20:39:42.234Z,35.30
2023-01-29T20:42:08.604Z,30.57
2023-01-29T20:44:34.923Z,34.40
2023-01-29T20:47:02.613Z,30.77
2023-01-29T20:49:29.023Z,29.40
2023-01-29T20:51:55.580Z,35.60
2023-01-29T20:54:22.084Z,32.60
2023-01-29T20:56:48.916Z,37.83
2023-01-29T20:59:15.497Z,35.70
2023-01-29T21:01:43.070Z,33.93
2023-01-29T21:04:09.413Z,29.30
2023-01-29T21:06:35.794Z,34.50
2023-01-29T21:09:02.169Z,32.57
2023-01-29T21:11:28.655Z,32.03
2023-01-29T21:13:57.612Z,31.60
2023-01-29T21:16:26.351Z,30.63
2023-01-29T21:18:56.972Z,33.73
2023-01-29T21:21:23.535Z,33.23
2023-01-29T21:23:49.871Z,34.33
2023-01-29T21:26:16.314Z,31.20
2023-01-29T21:28:42.672Z,31.87
2023-01-29T21:31:14.323Z,30.07
2023-01-29T21:33:40.688Z,34.20
2023-01-29T21:36:08.357Z,32.10
2023-01-29T21:38:34.708Z,32.53
2023-01-29T21:41:03.401Z,33.60
2023-01-29T21:43:29.963Z,29.80
2023-01-29T21:46:03.788Z,29.63
2023-01-29T21:48:30.886Z,30.50
2023-01-29T21:50:57.301Z,29.43
2023-01-29T21:53:23.643Z,31.60
2023-01-29T21:55:50.181Z,29.50
2023-01-29T21:58:16.516Z,30.23
2023-01-29T22:00:42.935Z,29.53
2023-01-29T22:03:09.294Z,29.53
2023-01-29T22:05:35.692Z,29.73
2023-01-29T22:08:02.407Z,28.90
2023-01-29T22:10:30.534Z,27.67
2023-01-29T22:12:59.085Z,27.43
2023-01-29T22:15:25.457Z,29.93
2023-01-29T22:17:51.785Z,29.67
2023-01-29T22:20:19.076Z,32.10
2023-01-29T22:22:45.646Z,30.83
2023-01-29T22:25:12.065Z,28.57
2023-01-29T22:27:38.663Z,29.70
2023-01-29T22:30:06.177Z,31.43
2023-01-29T22:32:33.131Z,31.83
2023-01-29T22:34:59.585Z,28.10
2023-01-29T22:37:25.983Z,28.13
2023-01-29T22:39:52.364Z,29.83
2023-01-29T22:42:20.393Z,26.17
2023-01-29T22:44:48.027Z,26.57
2023-01-29T22:47:14.403Z,28.37
2023-01-29T22:49:40.792Z,29.87
2023-01-29T22:52:10.053Z,25.60
2023-01-29T22:54:40.863Z,26.93
2023-01-29T22:57:13.480Z,28.97
2023-01-29T22:59:40.360Z,27.13
2023-01-29T23:02:07.836Z,27.90
2023-01-29T23:04:34.184Z,28.93
2023-01-29T23:07:00.672Z,26.70
2023-01-29T23:09:27.154Z,22.93
2023-01-29T23:11:53.549Z,25.20
2023-01-29T23:14:20.032Z,26.07
2023-01-29T23:16:46.408Z,26.40
2023-01-29T23:19:12.792Z,26.70
2023-01-29T23:21:39.804Z,26.70
2023-01-29T23:24:07.873Z,28.67
2023-01-29T23:26:53.036Z,24.50
2023-01-29T23:29:19.647Z,26.93
2023-01-29T23:31:46.119Z,24.37
2023-01-29T23:34:13.576Z,24.00
2023-01-29T23:36:39.976Z,23.70
2023-01-29T23:39:06.703Z,23.70
2023-01-29T23:41:33.464Z,26.63
2023-01-29T23:43:59.794Z,23.63
2023-01-29T23:46:26.223Z,24.40
2023-01-29T23:48:52.602Z,25.03
2023-01-29T23:51:19.130Z,25.83
2023-01-29T23:53:45.478Z,24.57
2023-01-29T23:56:11.861Z,24.70
2023-01-29T23:58:38.245Z,27.70
